Time;durP1;ratioP1;P1;durP2;ratioP2;P2;SDS_P1;SDS_P2;PMS_P1;PMS_P2;Temp;Humidity;BMP_temperature;BMP_pressure;BME280_temperature;BME280_humidity;BME280_pressure;Samples;Min_cycle;Max_cycle;Signal;HPM_P1;HPM_P2
2022/08/02 00:00:11;;;;;;;6.90;4.90;;;;;;;;;;4967512;28;20654;-74
2022/08/02 00:02:39;;;;;;;6.47;5.37;;;;;;;;;;4975798;28;20230;-74
2022/08/02 00:05:06;;;;;;;6.07;5.30;;;;;;;;;;4976053;28;20640;-73
2022/08/02 00:07:34;;;;;;;8.73;5.83;;;;;;;;;;4975700;28;20289;-74
2022/08/02 00:10:02;;;;;;;6.27;4.90;;;;;;;;;;4975809;28;20241;-74
2022/08/02 00:12:29;;;;;;;7.73;5.00;;;;;;;;;;4975711;28;20202;-74
2022/08/02 00:14:56;;;;;;;6.30;4.80;;;;;;;;;;4975837;28;20230;-74
2022/08/02 00:17:25;;;;;;;6.87;4.93;;;;;;;;;;4975751;28;20202;-74
2022/08/02 00:19:52;;;;;;;6.20;4.43;;;;;;;;;;4975651;28;20242;-74
2022/08/02 00:22:19;;;;;;;5.23;4.73;;;;;;;;;;4975263;28;20663;-74
2022/08/02 00:24:47;;;;;;;6.30;4.50;;;;;;;;;;4975415;28;20234;-74
2022/08/02 00:27:14;;;;;;;8.10;4.77;;;;;;;;;;4975577;28;20242;-74
2022/08/02 00:29:41;;;;;;;6.97;4.30;;;;;;;;;;4975495;28;20632;-74
2022/08/02 00:32:08;;;;;;;4.50;4.10;;;;;;;;;;4975152;28;20244;-74
2022/08/02 00:34:37;;;;;;;4.80;4.23;;;;;;;;;;4975323;28;20701;-74
2022/08/02 00:37:06;;;;;;;6.00;4.77;;;;;;;;;;4974807;28;20249;-74
2022/08/02 00:39:33;;;;;;;5.60;4.10;;;;;;;;;;4975189;28;20238;-74
2022/08/02 00:42:00;;;;;;;5.87;4.63;;;;;;;;;;4975058;28;20749;-74
2022/08/02 00:44:27;;;;;;;5.13;4.60;;;;;;;;;;4975195;28;20238;-74
2022/08/02 00:46:54;;;;;;;4.63;4.20;;;;;;;;;;4975055;28;20229;-74
2022/08/02 00:49:22;;;;;;;5.13;4.20;;;;;;;;;;4975231;28;20230;-74
2022/08/02 00:51:50;;;;;;;6.10;4.60;;;;;;;;;;4974941;28;20289;-74
2022/08/02 00:54:17;;;;;;;7.93;4.77;;;;;;;;;;4975005;28;20206;-74
2022/08/02 00:56:45;;;;;;;8.33;5.33;;;;;;;;;;4975063;28;20238;-74
2022/08/02 00:59:12;;;;;;;6.20;5.27;;;;;;;;;;4971078;28;20234;-74
2022/08/02 01:01:40;;;;;;;6.73;5.43;;;;;;;;;;4955535;29;20275;-74
2022/08/02 01:04:07;;;;;;;6.57;4.70;;;;;;;;;;4955092;28;20238;-74
2022/08/02 01:06:35;;;;;;;8.67;5.40;;;;;;;;;;4955290;29;20207;-74
2022/08/02 01:09:03;;;;;;;6.57;5.10;;;;;;;;;;4955514;29;20290;-74
2022/08/02 01:11:31;;;;;;;6.23;5.43;;;;;;;;;;4955700;29;20195;-74
2022/08/02 01:13:59;;;;;;;10.03;5.80;;;;;;;;;;4955208;29;20290;-74
2022/08/02 01:16:30;;;;;;;5.87;5.07;;;;;;;;;;4955650;29;20624;-74
2022/08/02 01:19:00;;;;;;;6.40;5.40;;;;;;;;;;4954908;29;20211;-74
2022/08/02 01:21:36;;;;;;;5.93;5.23;;;;;;;;;;4955209;29;20239;-74
2022/08/02 01:24:22;;;;;;;6.90;5.23;;;;;;;;;;4954963;29;20313;-74
2022/08/02 01:26:53;;;;;;;6.20;4.33;;;;;;;;;;4955356;29;20301;-74
2022/08/02 01:29:23;;;;;;;6.03;5.03;;;;;;;;;;4955081;29;20225;-74
2022/08/02 01:31:55;;;;;;;7.07;5.17;;;;;;;;;;4955280;29;20210;-74
2022/08/02 01:34:28;;;;;;;6.30;5.33;;;;;;;;;;4938036;29;20230;-74
2022/08/02 01:36:58;;;;;;;6.03;5.03;;;;;;;;;;4954870;29;20246;-74
2022/08/02 01:39:28;;;;;;;7.63;5.43;;;;;;;;;;4954584;29;20249;-74
2022/08/02 01:41:56;;;;;;;6.40;5.30;;;;;;;;;;4954851;29;20295;-74
2022/08/02 01:44:25;;;;;;;6.03;5.10;;;;;;;;;;4954858;29;20638;-74
2022/08/02 01:46:53;;;;;;;6.23;5.00;;;;;;;;;;4954932;29;20609;-74
2022/08/02 01:49:22;;;;;;;6.90;5.13;;;;;;;;;;4954300;29;20246;-74
2022/08/02 01:54:35;;;;;;;8.77;5.13;;;;;;;;;;4954740;29;20275;-74
2022/08/02 01:57:04;;;;;;;6.13;5.53;;;;;;;;;;4954702;29;20231;-74
2022/08/02 01:59:33;;;;;;;7.57;5.60;;;;;;;;;;4960600;28;20238;-74
2022/08/02 02:02:01;;;;;;;6.67;5.37;;;;;;;;;;4961975;28;20246;-74
2022/08/02 02:04:31;;;;;;;6.20;5.40;;;;;;;;;;4954494;29;20230;-74
2022/08/02 02:06:59;;;;;;;7.67;5.77;;;;;;;;;;4954576;28;20302;-74
2022/08/02 02:09:27;;;;;;;8.97;5.60;;;;;;;;;;4954636;29;20298;-74
2022/08/02 02:11:56;;;;;;;6.33;5.43;;;;;;;;;;4954826;29;20294;-74
2022/08/02 02:14:24;;;;;;;7.47;5.40;;;;;;;;;;4955252;28;20282;-74
2022/08/02 02:16:54;;;;;;;7.43;5.70;;;;;;;;;;4960549;28;20633;-74
2022/08/02 02:19:21;;;;;;;6.27;5.43;;;;;;;;;;4960928;28;20211;-74
2022/08/02 02:21:48;;;;;;;6.13;5.47;;;;;;;;;;4960640;28;20289;-74
2022/08/02 02:24:15;;;;;;;9.03;5.87;;;;;;;;;;4960691;28;20753;-74
2022/08/02 02:26:44;;;;;;;8.77;6.33;;;;;;;;;;4960938;29;20235;-74
2022/08/02 02:29:12;;;;;;;7.70;5.93;;;;;;;;;;4961062;29;20290;-74
2022/08/02 02:31:40;;;;;;;7.87;6.17;;;;;;;;;;4960132;29;20845;-74
2022/08/02 02:34:10;;;;;;;7.93;6.10;;;;;;;;;;4960933;28;20234;-74
2022/08/02 02:36:38;;;;;;;7.93;6.53;;;;;;;;;;4960620;29;20290;-74
2022/08/02 02:39:07;;;;;;;10.10;6.43;;;;;;;;;;4960712;28;20758;-74
2022/08/02 02:41:34;;;;;;;8.57;7.00;;;;;;;;;;4960656;29;20383;-75
2022/08/02 02:44:03;;;;;;;9.27;7.40;;;;;;;;;;4960557;28;20230;-74
2022/08/02 02:46:31;;;;;;;8.23;6.70;;;;;;;;;;4960598;29;20290;-74
2022/08/02 02:48:58;;;;;;;10.83;6.73;;;;;;;;;;4960663;28;20285;-74
2022/08/02 02:51:27;;;;;;;9.73;7.07;;;;;;;;;;4960287;29;20293;-74
2022/08/02 02:53:55;;;;;;;11.00;7.13;;;;;;;;;;4960580;28;20286;-73
2022/08/02 02:56:22;;;;;;;11.33;7.30;;;;;;;;;;4960553;28;20659;-74
2022/08/02 02:58:51;;;;;;;9.50;7.10;;;;;;;;;;4960733;28;20310;-74
2022/08/02 03:01:28;;;;;;;9.97;6.90;;;;;;;;;;4979368;28;20297;-74
2022/08/02 03:03:55;;;;;;;9.47;6.73;;;;;;;;;;4979771;28;20285;-74
2022/08/02 03:06:22;;;;;;;10.03;6.40;;;;;;;;;;4979907;28;20244;-74
2022/08/02 03:08:51;;;;;;;7.87;6.20;;;;;;;;;;4979678;28;20766;-74
2022/08/02 03:11:19;;;;;;;8.07;6.20;;;;;;;;;;4979570;28;20265;-74
2022/08/02 03:13:46;;;;;;;8.80;6.20;;;;;;;;;;4979941;28;20630;-74
2022/08/02 03:16:14;;;;;;;7.97;6.50;;;;;;;;;;4979291;28;20997;-74
2022/08/02 03:18:42;;;;;;;8.33;6.73;;;;;;;;;;4979909;28;20202;-74
2022/08/02 03:21:11;;;;;;;9.90;6.90;;;;;;;;;;4979646;28;20202;-73
2022/08/02 03:23:39;;;;;;;9.47;6.30;;;;;;;;;;4979587;28;20230;-74
2022/08/02 03:26:07;;;;;;;9.50;7.00;;;;;;;;;;4978118;28;20209;-74
2022/08/02 03:28:35;;;;;;;9.40;6.20;;;;;;;;;;4976285;28;20240;-74
2022/08/02 03:31:02;;;;;;;7.90;6.30;;;;;;;;;;4976444;28;20233;-74
2022/08/02 03:33:29;;;;;;;10.93;6.33;;;;;;;;;;4976480;28;20749;-74
2022/08/02 03:35:58;;;;;;;10.50;6.67;;;;;;;;;;4976363;28;20289;-74
2022/08/02 03:38:26;;;;;;;9.30;6.73;;;;;;;;;;4976507;28;20234;-74
2022/08/02 03:40:54;;;;;;;11.53;7.30;;;;;;;;;;4976505;28;20626;-74
2022/08/02 03:43:24;;;;;;;9.20;6.83;;;;;;;;;;4976413;28;20234;-74
2022/08/02 03:45:51;;;;;;;8.30;6.47;;;;;;;;;;4976135;28;20289;-74
2022/08/02 03:48:19;;;;;;;8.27;6.47;;;;;;;;;;4976246;28;20290;-73
2022/08/02 03:50:47;;;;;;;8.77;6.33;;;;;;;;;;4976354;28;20593;-73
2022/08/02 03:53:15;;;;;;;10.73;6.43;;;;;;;;;;4976258;28;20207;-74
2022/08/02 03:55:42;;;;;;;8.27;6.27;;;;;;;;;;4976201;28;20222;-74
2022/08/02 03:58:09;;;;;;;8.40;7.20;;;;;;;;;;4976105;28;20321;-74
2022/08/02 04:00:38;;;;;;;10.13;7.70;;;;;;;;;;4965583;28;20270;-74
2022/08/02 04:03:05;;;;;;;9.40;7.00;;;;;;;;;;4956484;29;20250;-74
2022/08/02 04:05:33;;;;;;;10.77;7.40;;;;;;;;;;4956518;29;20678;-74
2022/08/02 04:08:00;;;;;;;9.27;7.30;;;;;;;;;;4956743;29;20235;-74
2022/08/02 04:10:27;;;;;;;10.50;7.33;;;;;;;;;;4956827;29;20286;-73
2022/08/02 04:12:55;;;;;;;11.00;7.30;;;;;;;;;;4956289;29;20241;-77
2022/08/02 04:15:23;;;;;;;11.83;7.70;;;;;;;;;;4956729;29;20230;-77
2022/08/02 04:17:56;;;;;;;10.97;7.53;;;;;;;;;;4956528;29;20258;-77
2022/08/02 04:20:25;;;;;;;9.57;7.27;;;;;;;;;;4956867;29;20199;-77
2022/08/02 04:22:55;;;;;;;9.00;7.17;;;;;;;;;;4956544;29;20293;-77
2022/08/02 04:25:24;;;;;;;10.07;7.33;;;;;;;;;;4956320;29;20273;-77
2022/08/02 04:27:51;;;;;;;10.60;7.07;;;;;;;;;;4956485;29;20257;-77
2022/08/02 04:30:19;;;;;;;9.10;7.43;;;;;;;;;;4956598;29;20246;-77
2022/08/02 04:32:46;;;;;;;9.83;6.97;;;;;;;;;;4956514;29;20242;-77
2022/08/02 04:35:15;;;;;;;8.13;6.90;;;;;;;;;;4956436;29;20302;-77
2022/08/02 04:37:43;;;;;;;11.37;7.50;;;;;;;;;;4956210;28;20218;-77
2022/08/02 04:40:11;;;;;;;8.97;7.30;;;;;;;;;;4956042;29;20215;-77
2022/08/02 04:42:38;;;;;;;11.53;7.43;;;;;;;;;;4956242;29;20258;-77
2022/08/02 04:45:06;;;;;;;8.87;7.50;;;;;;;;;;4956360;29;20269;-77
2022/08/02 04:47:33;;;;;;;10.20;7.10;;;;;;;;;;4955890;29;21000;-77
2022/08/02 04:50:01;;;;;;;11.20;6.90;;;;;;;;;;4956167;29;20294;-77
2022/08/02 04:52:29;;;;;;;11.23;7.30;;;;;;;;;;4955894;29;20290;-77
2022/08/02 04:54:56;;;;;;;9.23;7.40;;;14.00;99.90;;;;;;4955974;29;20231;-76
2022/08/02 05:00:08;;;;;;;12.00;7.23;;;13.70;99.90;;;;;;4943396;29;20256;-77
2022/08/02 05:02:36;;;;;;;11.63;7.63;;;13.60;99.90;;;;;;4955572;29;20558;-77
2022/08/02 05:05:03;;;;;;;9.23;7.07;;;13.70;99.90;;;;;;4955790;29;20227;-77
2022/08/02 05:07:32;;;;;;;8.50;6.70;;;13.70;99.90;;;;;;4955901;29;20211;-77
2022/08/02 05:09:59;;;;;;;9.83;6.83;;;13.70;99.90;;;;;;4955769;29;20289;-77
2022/08/02 05:12:26;;;;;;;10.43;7.07;;;13.80;99.90;;;;;;4955348;29;20293;-77
2022/08/02 05:14:53;;;;;;;10.77;7.43;;;13.90;99.90;;;;;;4955400;29;20286;-77
2022/08/02 05:17:19;;;;;;;10.03;7.57;;;13.90;99.90;;;;;;4955335;29;20238;-77
2022/08/02 05:19:47;;;;;;;11.47;7.27;;;14.00;99.90;;;;;;4955344;29;20719;-77
2022/08/02 05:22:14;;;;;;;11.77;7.73;;;14.00;99.90;;;;;;4955347;29;20298;-77
2022/08/02 05:24:42;;;;;;;12.20;8.00;;;14.10;99.90;;;;;;4955165;29;20801;-77
2022/08/02 05:27:09;;;;;;;10.43;7.60;;;14.30;99.90;;;;;;4955299;29;20655;-77
2022/08/02 05:29:36;;;;;;;11.00;7.70;;;14.40;99.90;;;;;;4954946;29;20239;-77
2022/08/02 05:32:03;;;;;;;10.97;8.13;;;14.40;99.90;;;;;;4955423;29;20290;-77
2022/08/02 05:34:30;;;;;;;11.27;8.17;;;14.50;99.90;;;;;;4955354;29;20609;-77
2022/08/02 05:36:56;;;;;;;12.07;8.27;;;14.70;99.90;;;;;;4955307;29;20227;-77
2022/08/02 05:39:23;;;;;;;10.40;7.83;;;15.00;99.90;;;;;;4955016;29;20265;-77
2022/08/02 05:41:52;;;;;;;10.63;8.40;;;15.30;99.90;;;;;;4955203;29;20613;-77
2022/08/02 05:44:19;;;;;;;12.93;8.67;;;15.60;99.90;;;;;;4954918;29;20265;-77
2022/08/02 05:46:45;;;;;;;10.07;7.57;;;15.90;99.90;;;;;;4955350;29;20234;-77
2022/08/02 05:49:12;;;;;;;10.07;7.50;;;16.50;99.90;;;;;;4954610;28;20595;-77
2022/08/02 05:51:45;;;;;;;9.05;7.18;;;17.00;99.90;;;;;;4954700;29;20702;-77
2022/08/02 05:54:20;;;;;;;9.05;7.05;;;17.40;99.90;;;;;;4954989;29;20199;-77
2022/08/02 05:56:56;;;;;;;7.82;7.03;;;17.80;99.90;;;;;;4954855;29;20203;-78
2022/08/02 05:59:28;;;;;;;9.82;7.13;;;17.80;99.90;;;;;;4954765;29;20230;-77
2022/08/02 06:01:57;;;;;;;12.98;7.50;;;17.90;99.90;;;;;;4954753;29;20231;-77
2022/08/02 06:04:26;;;;;;;15.13;7.05;;;17.90;99.90;;;;;;4954682;29;20226;-77
2022/08/02 06:06:56;;;;;;;14.13;6.80;;;18.20;99.90;;;;;;4954741;29;20274;-77
2022/08/02 06:09:26;;;;;;;16.02;7.07;;;18.80;99.90;;;;;;4954947;29;20241;-77
2022/08/02 06:11:59;;;;;;;14.55;7.28;;;19.50;99.90;;;;;;4955154;29;20235;-77
2022/08/02 06:14:27;;;;;;;13.77;6.90;;;19.80;99.90;;;;;;4954812;29;20725;-77
2022/08/02 06:16:55;;;;;;;13.77;6.43;;;20.60;99.90;;;;;;4954650;29;20249;-77
2022/08/02 06:19:25;;;;;;;15.82;6.70;;;20.50;99.90;;;;;;4954958;29;20207;-77
2022/08/02 06:21:52;;;;;;;13.77;6.47;;;20.90;99.90;;;;;;4954876;29;20593;-77
2022/08/02 06:24:19;;;;;;;13.95;5.95;;;20.70;99.90;;;;;;4954530;29;20284;-77
2022/08/02 06:26:51;;;;;;;17.63;6.53;;;20.90;99.90;;;;;;4954680;29;20293;-77
2022/08/02 06:29:21;;;;;;;13.75;5.70;;;21.30;99.90;;;;;;4954570;29;20207;-77
2022/08/02 06:31:49;;;;;;;13.25;5.55;;;21.60;99.90;;;;;;4955247;29;20230;-77
2022/08/02 06:34:16;;;;;;;17.67;6.63;;;21.80;99.90;;;;;;4954935;29;20238;-77
2022/08/02 06:36:50;;;;;;;13.15;6.15;;;21.40;99.90;;;;;;4954462;29;20642;-77
2022/08/02 06:39:22;;;;;;;15.65;6.60;;;21.50;99.90;;;;;;4954306;29;20285;-77
2022/08/02 06:41:52;;;;;;;20.98;6.22;;;22.00;99.90;;;;;;4954694;29;20573;-77
2022/08/02 06:44:20;;;;;;;13.73;5.68;;;22.30;99.90;;;;;;4954593;29;20648;-77
2022/08/02 06:46:47;;;;;;;10.80;5.90;;;23.10;99.90;;;;;;4954764;29;20203;-77
2022/08/02 06:49:14;;;;;;;13.75;5.75;;;24.00;99.90;;;;;;4954863;29;20207;-77
2022/08/02 06:51:41;;;;;;;10.65;6.10;;;24.10;99.90;;;;;;4954424;29;20238;-78
2022/08/02 06:54:08;;;;;;;7.38;5.65;;;24.80;99.90;;;;;;4954186;29;20290;-78
2022/08/02 06:56:35;;;;;;;7.75;5.85;;;24.20;99.90;;;;;;4954517;29;20630;-77
2022/08/02 06:59:02;;;;;;;5.95;5.20;;;24.50;99.90;;;;;;4954444;29;20266;-78
2022/08/02 07:01:30;;;;;;;5.63;5.05;;;25.30;99.90;;;;;;4972538;28;20264;-78
2022/08/02 07:03:58;;;;;;;6.50;4.68;;;25.60;99.90;;;;;;4977476;28;20238;-75
2022/08/02 07:06:25;;;;;;;4.95;4.55;;;26.80;99.90;;;;;;4977215;28;20202;-78
2022/08/02 07:08:52;;;;;;;4.15;3.83;;;27.00;99.90;;;;;;4977022;28;20630;-78
2022/08/02 07:11:19;;;;;;;3.90;3.47;;;27.70;99.90;;;;;;4977131;28;20242;-77
2022/08/02 07:13:46;;;;;;;3.33;3.00;;;27.40;99.90;;;;;;4977120;28;20721;-78
2022/08/02 07:16:13;;;;;;;2.50;2.30;;;27.00;99.90;;;;;;4977364;28;20238;-78
2022/08/02 07:18:41;;;;;;;1.98;1.88;;;28.10;99.90;;;;;;4977014;28;20289;-78
2022/08/02 07:21:08;;;;;;;2.40;2.20;;;28.40;99.90;;;;;;4976721;28;20238;-78
2022/08/02 07:23:35;;;;;;;2.13;1.92;;;28.30;99.90;;;;;;4976829;28;20579;-78
2022/08/02 07:26:02;;;;;;;2.38;2.17;;;28.80;99.90;;;;;;4976730;28;20262;-78
2022/08/02 07:28:29;;;;;;;2.20;2.00;;;28.50;99.90;;;;;;4976931;28;20950;-78
2022/08/02 07:30:56;;;;;;;2.70;1.45;;;29.60;99.90;;;;;;4977017;28;20198;-78
2022/08/02 07:33:23;;;;;;;1.90;1.17;;;29.50;99.90;;;;;;4976467;28;20294;-78
2022/08/02 07:35:51;;;;;;;3.63;1.25;;;29.70;99.90;;;;;;4976468;28;20663;-78
2022/08/02 07:38:21;;;;;;;1.30;1.20;;;29.70;99.90;;;;;;4976853;28;20297;-78
2022/08/02 07:40:48;;;;;;;1.45;1.30;;;30.10;99.90;;;;;;4976706;28;20297;-78
2022/08/02 07:43:15;;;;;;;1.98;1.50;;;29.20;99.90;;;;;;4976640;28;20294;-78
2022/08/02 07:45:42;;;;;;;1.40;1.15;;;28.30;99.90;;;;;;4976444;28;20226;-78
2022/08/02 07:48:10;;;;;;;1.33;1.20;;;27.80;99.90;;;;;;4976704;28;20202;-78
2022/08/02 07:50:37;;;;;;;1.20;1.10;;;28.10;99.90;;;;;;4976067;28;20215;-78
2022/08/02 07:53:06;;;;;;;1.65;1.30;;;28.80;99.90;;;;;;4976479;28;20301;-78
2022/08/02 07:55:32;;;;;;;1.38;1.25;;;28.90;99.90;;;;;;4976374;28;20743;-78
2022/08/02 07:57:59;;;;;;;2.35;1.23;;;28.70;99.90;;;;;;4976311;28;20265;-78
2022/08/02 08:00:26;;;;;;;1.60;1.40;;;29.10;99.90;;;;;;4953741;28;20283;-78
2022/08/02 08:02:53;;;;;;;2.50;1.30;;;29.50;99.90;;;;;;4938207;29;20243;-78
2022/08/02 08:05:21;;;;;;;1.40;1.30;;;28.70;99.90;;;;;;4937244;29;20228;-78
2022/08/02 08:07:47;;;;;;;1.35;1.25;;;28.50;99.90;;;;;;4938027;29;20207;-78
2022/08/02 08:10:16;;;;;;;1.77;1.10;;;28.70;99.90;;;;;;4937527;29;20246;-78
2022/08/02 08:12:43;;;;;;;2.15;0.90;;;28.90;99.90;;;;;;4937078;29;20290;-78
2022/08/02 08:15:10;;;;;;;3.25;1.30;;;29.80;99.90;;;;;;4937631;29;20286;-78
2022/08/02 08:17:38;;;;;;;1.40;1.30;;;30.10;99.90;;;;;;4937359;29;20804;-78
2022/08/02 08:20:05;;;;;;;1.50;1.40;;;29.60;99.90;;;;;;4937296;29;20290;-78
2022/08/02 08:22:32;;;;;;;1.25;1.15;;;30.20;99.90;;;;;;4937379;29;20291;-78
2022/08/02 08:24:59;;;;;;;1.30;1.20;;;30.70;99.90;;;;;;4937674;29;20267;-79
2022/08/02 08:27:28;;;;;;;1.20;1.10;;;31.10;99.90;;;;;;4937595;29;20204;-79
2022/08/02 08:29:55;;;;;;;1.15;1.10;;;32.00;99.90;;;;;;4937293;29;20295;-79
2022/08/02 08:32:22;;;;;;;1.50;1.30;;;33.20;99.90;;;;;;4937283;29;20239;-78
2022/08/02 08:34:50;;;;;;;1.30;1.20;;;33.40;99.90;;;;;;4936625;29;20238;-78
2022/08/02 08:37:17;;;;;;;1.40;1.30;;;32.40;99.90;;;;;;4937293;29;20212;-78
2022/08/02 08:39:44;;;;;;;1.30;1.20;;;33.00;99.90;;;;;;4937088;29;20604;-78
2022/08/02 08:42:11;;;;;;;2.05;1.30;;;32.80;99.90;;;;;;4936949;29;20263;-78
2022/08/02 08:44:40;;;;;;;1.02;1.00;;;32.20;99.90;;;;;;4936966;29;20235;-78
2022/08/02 08:47:08;;;;;;;1.20;1.10;;;32.50;99.90;;;;;;4936969;29;20246;-78
2022/08/02 08:49:40;;;;;;;5.63;1.30;;;32.70;99.90;;;;;;4936628;29;20263;-78
2022/08/02 08:52:07;;;;;;;1.10;1.00;;;32.50;96.90;;;;;;4936846;29;20283;-78
2022/08/02 08:54:36;;;;;;;2.10;1.00;;;33.00;96.00;;;;;;4936887;29;20267;-78
2022/08/02 08:57:05;;;;;;;1.23;1.02;;;33.70;90.80;;;;;;4936827;29;20200;-78
2022/08/02 08:59:32;;;;;;;1.88;1.10;;;32.90;86.50;;;;;;4937504;29;20668;-78
2022/08/02 09:02:02;;;;;;;1.42;1.00;;;32.60;81.00;;;;;;4955738;29;20234;-78
2022/08/02 09:04:30;;;;;;;1.63;1.20;;;32.10;90.20;;;;;;4955750;29;20250;-78
2022/08/02 09:06:57;;;;;;;1.33;1.02;;;32.60;86.00;;;;;;4955543;29;20320;-78
2022/08/02 09:09:24;;;;;;;2.50;0.95;;;33.80;75.10;;;;;;4955903;29;20198;-78
2022/08/02 09:11:51;;;;;;;0.80;0.80;;;33.80;69.40;;;;;;4955683;29;20235;-78
2022/08/02 09:14:27;;;;;;;1.10;1.00;;;33.70;55.70;;;;;;4955675;29;20294;-78
2022/08/02 09:17:08;;;;;;;1.35;1.20;;;34.70;51.80;;;;;;4955481;29;20589;-78
2022/08/02 09:19:35;;;;;;;1.10;1.00;;;33.40;58.90;;;;;;4955287;29;20237;-78
2022/08/02 09:22:05;;;;;;;1.88;0.90;;;34.40;51.60;;;;;;4955242;29;20206;-78
2022/08/02 09:24:43;;;;;;;1.00;0.90;;;34.50;42.60;;;;;;4954557;28;20206;-78
2022/08/02 09:27:14;;;;;;;1.52;0.93;;;34.60;38.30;;;;;;4955581;29;20198;-78
2022/08/02 09:29:45;;;;;;;1.90;1.02;;;34.80;36.70;;;;;;4955509;29;20234;-79
2022/08/02 09:32:15;;;;;;;2.35;1.13;;;35.70;38.00;;;;;;4955174;29;20256;-78
2022/08/02 09:34:47;;;;;;;0.95;0.90;;;35.50;25.20;;;;;;4955385;29;20206;-78
2022/08/02 09:37:27;;;;;;;2.85;1.00;;;35.10;30.00;;;;;;4955390;29;20242;-78
2022/08/02 09:39:55;;;;;;;1.35;0.80;;;35.60;25.60;;;;;;4955027;29;20725;-78
2022/08/02 09:42:22;;;;;;;1.50;0.90;;;34.40;41.40;;;;;;4955020;29;20666;-78
2022/08/02 09:44:54;;;;;;;1.75;0.90;;;35.30;26.80;;;;;;4954970;29;20242;-78
2022/08/02 09:47:23;;;;;;;2.00;1.10;;;35.10;19.90;;;;;;4954873;29;20202;-78
2022/08/02 09:49:53;;;;;;;1.02;0.90;;;35.40;31.00;;;;;;4955369;29;20234;-78
2022/08/02 09:52:26;;;;;;;1.13;1.02;;;36.40;18.80;;;;;;4954908;29;20346;-78
2022/08/02 09:54:53;;;;;;;1.85;1.05;;;37.10;11.80;;;;;;4955087;29;20198;-79
2022/08/02 09:57:28;;;;;;;0.98;0.90;;;36.20;11.60;;;;;;4954888;29;20962;-78
2022/08/02 09:59:57;;;;;;;2.33;1.13;;;36.90;14.00;;;;;;4954828;28;20269;-78
2022/08/02 10:02:26;;;;;;;2.00;0.88;;;36.30;10.50;;;;;;4954618;29;20230;-78
2022/08/02 10:04:53;;;;;;;1.55;0.80;;;36.00;16.70;;;;;;4954941;29;20238;-78
2022/08/02 10:07:20;;;;;;;1.20;1.10;;;36.00;19.50;;;;;;4954782;29;20261;-78
2022/08/02 10:09:48;;;;;;;1.17;1.08;;;36.10;15.70;;;;;;4954795;29;20714;-79
2022/08/02 10:12:15;;;;;;;1.80;1.10;;;36.70;5.80;;;;;;4954613;29;20207;-78
2022/08/02 10:14:43;;;;;;;0.98;0.98;;;35.80;14.40;;;;;;4954775;29;20573;-78
2022/08/02 10:17:10;;;;;;;1.70;0.80;;;35.70;20.10;;;;;;4954653;29;20203;-78
2022/08/02 10:19:39;;;;;;;0.88;0.80;;;37.10;15.80;;;;;;4938015;29;20233;-78
2022/08/02 10:22:11;;;;;;;1.90;0.90;;;38.00;1.00;;;;;;4954534;29;20202;-78
2022/08/02 10:24:40;;;;;;;1.20;1.08;;;37.60;1.00;;;;;;4954719;29;20342;-78
2022/08/02 10:27:13;;;;;;;1.75;0.95;;;37.90;1.00;;;;;;4954387;29;20313;-78
2022/08/02 10:29:42;;;;;;;2.15;0.98;;;37.40;1.00;;;;;;4954729;29;20233;-78
2022/08/02 10:32:13;;;;;;;4.22;0.90;;;37.70;2.00;;;;;;4954452;29;20241;-79
2022/08/02 10:34:47;;;;;;;0.80;0.80;;;38.00;1.00;;;;;;4954419;29;20753;-78
2022/08/02 10:37:16;;;;;;;1.25;1.00;;;38.10;1.00;;;;;;4957350;28;20551;-79
2022/08/02 10:39:45;;;;;;;0.90;0.90;;;38.20;1.00;;;;;;4958558;29;20289;-78
2022/08/02 10:42:24;;;;;;;1.95;1.05;;;38.10;1.00;;;;;;4958320;29;21097;-79
2022/08/02 10:45:09;;;;;;;1.15;1.00;;;38.30;1.00;;;;;;4958154;29;20273;-79
2022/08/02 10:47:36;;;;;;;2.78;1.08;;;38.10;1.00;;;;;;4957966;29;20206;-79
2022/08/02 10:50:05;;;;;;;2.50;1.10;;;37.70;1.00;;;;;;4958115;29;20242;-78
2022/08/02 10:52:33;;;;;;;1.77;1.10;;;38.10;1.00;;;;;;4958166;29;20305;-78
2022/08/02 10:55:01;;;;;;;2.78;1.00;;;38.40;1.00;;;;;;4958230;29;20265;-78
2022/08/02 10:57:31;;;;;;;0.80;0.80;;;38.20;1.00;;;;;;4957998;29;20270;-79
2022/08/02 11:00:02;;;;;;;2.50;2.28;;;37.70;1.00;;;;;;4962745;28;20694;-78
2022/08/02 11:02:41;;;;;;;2.28;1.27;;;36.50;1.00;;;;;;4958043;29;20210;-79
2022/08/02 11:05:15;;;;;;;2.75;0.90;;;37.80;1.00;;;;;;4958132;29;20548;-78
2022/08/02 11:07:44;;;;;;;1.50;0.90;;;38.40;1.00;;;;;;4958176;29;20234;-78
2022/08/02 11:10:34;;;;;;;2.88;0.90;;;38.40;1.00;;;;;;4957719;29;20246;-78
2022/08/02 11:13:19;;;;;;;1.10;0.80;;;37.40;1.00;;;;;;4957843;29;20249;-78
2022/08/02 11:16:00;;;;;;;3.22;0.90;;;37.70;1.00;;;;;;4958080;29;20206;-79
2022/08/02 11:19:03;;;;;;;0.90;0.80;;;38.00;1.00;;;;;;4957939;29;20241;-78
2022/08/02 11:21:34;;;;;;;1.33;0.85;;;37.70;1.00;;;;;;4898272;29;20204;-79
2022/08/02 11:24:26;;;;;;;0.70;0.70;;;38.10;1.00;;;;;;4898420;29;20238;-79
2022/08/02 11:26:53;;;;;;;0.98;0.70;;;38.20;1.00;;;;;;4898202;29;20228;-78
2022/08/02 11:29:21;;;;;;;1.88;0.80;;;37.40;1.00;;;;;;4897852;29;20212;-78
2022/08/02 11:31:48;;;;;;;2.78;0.90;;;38.10;1.00;;;;;;4898162;29;20236;-78
2022/08/02 11:34:16;;;;;;;1.98;0.77;;;38.00;1.00;;;;;;4898121;29;20208;-78
2022/08/02 11:36:49;;;;;;;1.73;0.80;;;38.20;1.00;;;;;;4898263;29;20236;-78
2022/08/02 11:39:18;;;;;;;1.83;0.80;;;38.50;1.00;;;;;;4898052;29;20288;-78
2022/08/02 11:41:50;;;;;;;2.78;0.80;;;36.40;1.00;;;;;;4897982;29;20284;-78
2022/08/02 11:44:17;;;;;;;2.05;0.80;;;36.10;1.00;;;;;;4897662;29;20201;-74
2022/08/02 11:46:44;;;;;;;0.70;0.70;;;36.50;1.00;;;;;;4897542;29;20319;-74
2022/08/02 11:49:13;;;;;;;0.70;0.70;;;37.20;1.00;;;;;;4896865;29;20288;-75
2022/08/02 11:51:56;;;;;;;0.70;0.70;;;38.10;1.00;;;;;;4909984;29;20243;-75
2022/08/02 11:54:28;;;;;;;0.85;0.73;;;38.50;1.00;;;;;;4956870;28;20209;-75
2022/08/02 11:56:55;;;;;;;1.70;0.90;;;38.60;1.00;;;;;;4956507;29;20233;-74
2022/08/02 11:59:22;;;;;;;0.80;0.80;;;37.40;1.00;;;;;;4951694;29;20318;-74
2022/08/02 12:01:49;;;;;;;2.47;0.73;;;37.50;1.00;;;;;;4937416;29;20726;-74
2022/08/02 12:04:19;;;;;;;0.75;0.63;;;38.00;1.00;;;;;;4937567;29;20298;-75
2022/08/02 12:06:56;;;;;;;0.85;0.50;;;38.40;1.00;;;;;;4937254;29;20249;-74
2022/08/02 12:09:25;;;;;;;0.80;0.80;;;38.90;1.00;;;;;;4937416;29;20241;-74
2022/08/02 12:11:52;;;;;;;1.73;0.80;;;38.10;1.00;;;;;;4937110;29;20203;-74
2022/08/02 12:14:19;;;;;;;1.95;0.82;;;38.40;1.00;;;;;;4937378;29;20565;-74
2022/08/02 12:19:32;;;;;;;1.13;0.60;;;37.20;1.00;;;;;;4937335;29;20735;-74
2022/08/02 12:22:16;;;;;;;0.60;0.60;;;36.90;1.00;;;;;;4937196;29;20238;-75
2022/08/02 12:24:46;;;;;;;1.02;0.70;;;38.60;1.00;;;;;;4937031;29;20560;-75
2022/08/02 12:27:29;;;;;;;0.80;0.70;;;38.60;1.00;;;;;;4936911;29;20639;-74
2022/08/02 12:30:00;;;;;;;1.55;0.80;;;38.20;1.00;;;;;;4936913;29;20207;-74
2022/08/02 12:32:28;;;;;;;0.95;0.70;;;38.10;1.00;;;;;;4937164;29;20297;-74
2022/08/02 12:35:09;;;;;;;1.10;0.80;;;37.90;1.00;;;;;;4936987;29;20551;-75
2022/08/02 12:37:39;;;;;;;1.67;0.70;;;37.80;1.00;;;;;;4937279;29;20303;-75
2022/08/02 12:40:19;;;;;;;0.88;0.70;;;38.70;1.00;;;;;;4936983;29;20239;-74
2022/08/02 12:42:47;;;;;;;1.00;0.70;;;39.20;1.00;;;;;;4936583;29;20262;-74
2022/08/02 12:45:14;;;;;;;1.08;0.75;;;40.10;1.00;;;;;;4936708;29;20631;-74
2022/08/02 12:47:47;;;;;;;1.75;0.60;;;39.70;1.00;;;;;;4936685;29;20719;-75
2022/08/02 12:50:16;;;;;;;0.50;0.50;;;39.30;1.00;;;;;;4936693;29;20547;-75
2022/08/02 12:52:45;;;;;;;0.50;0.50;;;39.00;1.00;;;;;;4937014;29;20234;-74
2022/08/02 12:55:17;;;;;;;0.60;0.60;;;37.20;1.00;;;;;;4936523;29;20652;-75
2022/08/02 12:57:52;;;;;;;1.17;0.68;;;37.30;1.00;;;;;;4936345;29;20254;-75
2022/08/02 13:00:24;;;;;;;1.33;0.60;;;37.40;1.00;;;;;;4948779;29;20685;-75
2022/08/02 13:02:51;;;;;;;0.80;0.60;;;38.00;1.00;;;;;;4955816;28;20234;-75
2022/08/02 13:05:18;;;;;;;1.65;0.70;;;38.50;1.00;;;;;;4955744;28;20202;-76
2022/08/02 13:07:47;;;;;;;1.58;0.70;;;38.20;1.00;;;;;;4955399;29;20770;-74
2022/08/02 13:10:14;;;;;;;0.65;0.65;;;37.10;1.00;;;;;;4955063;29;20293;-74
2022/08/02 13:12:41;;;;;;;0.70;0.70;;;38.30;1.00;;;;;;4955865;29;20297;-74
2022/08/02 13:15:08;;;;;;;0.70;0.70;;;36.80;1.00;;;;;;4955223;29;20294;-74
2022/08/02 13:17:36;;;;;;;1.27;0.80;;;35.20;1.00;;;;;;4955438;28;20253;-74
2022/08/02 13:20:04;;;;;;;1.38;0.60;;;34.00;1.00;;;;;;4955352;29;20265;-74
2022/08/02 13:22:31;;;;;;;0.90;0.70;;;35.70;1.00;;;;;;4955549;29;20206;-74
2022/08/02 13:25:00;;;;;;;1.77;0.70;;;37.40;1.00;;;;;;4955301;29;20238;-74
2022/08/02 13:27:28;;;;;;;0.80;0.60;;;37.70;1.00;;;;;;4955243;29;20265;-75
2022/08/02 13:29:56;;;;;;;2.03;0.77;;;38.20;1.00;;;;;;4955136;29;20608;-74
2022/08/02 13:32:26;;;;;;;1.25;0.70;;;37.70;1.00;;;;;;4955491;29;20202;-74
2022/08/02 13:34:53;;;;;;;2.55;0.80;;;37.90;1.00;;;;;;4955253;29;20237;-74
2022/08/02 13:37:20;;;;;;;1.80;0.80;;;38.20;1.00;;;;;;4954975;28;20234;-74
2022/08/02 13:39:47;;;;;;;1.42;0.68;;;38.30;1.00;;;;;;4954853;29;20289;-74
2022/08/02 13:42:16;;;;;;;1.00;0.90;;;36.70;1.00;;;;;;4954653;29;20297;-74